createdAt,value
2023-05-14T00:01:55.123Z,11.02
2023-05-14T00:04:22.494Z,13.93
2023-05-14T00:06:49.499Z,16.35
2023-05-14T00:09:16.656Z,14.68
2023-05-14T00:11:43.658Z,10.63
2023-05-14T00:14:10.547Z,8.98
2023-05-14T00:16:37.654Z,10.70
2023-05-14T00:19:04.738Z,13.32
2023-05-14T00:21:32.293Z,11.93
2023-05-14T00:23:59.341Z,8.25
2023-05-14T00:26:26.241Z,10.60
2023-05-14T00:28:53.102Z,9.63
2023-05-14T00:31:20.074Z,9.75
2023-05-14T00:33:46.979Z,14.15
2023-05-14T00:36:13.857Z,17.02
2023-05-14T00:38:40.736Z,11.52
2023-05-14T00:41:08.216Z,11.50
2023-05-14T00:43:35.533Z,11.35
2023-05-14T00:46:02.720Z,10.98
2023-05-14T00:48:30.040Z,12.43
2023-05-14T00:50:57.043Z,9.35
2023-05-14T00:53:26.996Z,11.35
2023-05-14T00:55:54.043Z,11.13
2023-05-14T00:58:22.793Z,10.77
2023-05-14T01:00:49.889Z,10.85
2023-05-14T01:03:17.218Z,12.90
2023-05-14T01:06:09.658Z,11.15
2023-05-14T01:09:00.622Z,12.68
2023-05-14T01:11:47.849Z,10.93
2023-05-14T01:14:38.401Z,10.55
2023-05-14T01:17:07.711Z,10.45
2023-05-14T01:19:44.241Z,11.63
2023-05-14T01:22:12.332Z,13.65
2023-05-14T01:24:40.148Z,11.35
2023-05-14T01:27:14.610Z,10.02
2023-05-14T01:29:51.677Z,10.35
2023-05-14T01:32:20.642Z,10.50
2023-05-14T01:34:49.124Z,12.95
2023-05-14T01:37:17.015Z,11.30
2023-05-14T01:39:45.273Z,13.15
2023-05-14T01:42:12.992Z,14.95
2023-05-14T01:44:40.385Z,14.90
2023-05-14T01:47:07.235Z,13.52
2023-05-14T01:49:34.239Z,9.95
2023-05-14T01:52:01.119Z,11.35
2023-05-14T01:54:28.019Z,13.82
2023-05-14T01:56:54.881Z,10.40
2023-05-14T01:59:21.748Z,10.52
2023-05-14T02:01:48.692Z,15.55
2023-05-14T02:04:15.910Z,12.27
2023-05-14T02:06:42.983Z,13.00
2023-05-14T02:09:09.973Z,8.93
2023-05-14T02:11:36.977Z,11.43
2023-05-14T02:14:04.099Z,12.32
2023-05-14T02:16:31.200Z,15.55
2023-05-14T02:18:58.190Z,12.57
2023-05-14T02:21:25.240Z,12.45
2023-05-14T02:23:52.217Z,10.55
2023-05-14T02:26:19.213Z,11.10
2023-05-14T02:28:46.145Z,12.02
2023-05-14T02:31:13.481Z,14.88
2023-05-14T02:33:42.060Z,14.88
2023-05-14T02:36:09.120Z,9.55
2023-05-14T02:38:36.123Z,10.18
2023-05-14T02:41:03.188Z,11.93
2023-05-14T02:43:30.124Z,10.80
2023-05-14T02:45:57.091Z,11.82
2023-05-14T02:48:24.105Z,10.98
2023-05-14T02:50:53.890Z,11.05
2023-05-14T02:53:20.868Z,12.02
2023-05-14T02:55:47.830Z,13.35
2023-05-14T02:58:15.017Z,10.25
2023-05-14T03:00:41.985Z,9.65
2023-05-14T03:03:09.374Z,10.13
2023-05-14T03:05:36.854Z,9.35
2023-05-14T03:08:03.777Z,10.52
2023-05-14T03:10:32.016Z,11.50
2023-05-14T03:12:59.183Z,10.60
2023-05-14T03:15:26.178Z,10.68
2023-05-14T03:17:53.338Z,9.85
2023-05-14T03:20:20.683Z,12.98
2023-05-14T03:22:47.748Z,9.90
2023-05-14T03:25:14.674Z,10.43
2023-05-14T03:27:41.574Z,12.45
2023-05-14T03:30:09.212Z,10.75
2023-05-14T03:32:37.459Z,10.85
2023-05-14T03:35:05.030Z,9.95
2023-05-14T03:37:32.686Z,10.43
2023-05-14T03:39:59.809Z,11.20
2023-05-14T03:42:27.069Z,9.75
2023-05-14T03:44:53.993Z,10.48
2023-05-14T03:47:20.887Z,13.05
2023-05-14T03:49:47.828Z,11.95
2023-05-14T03:52:15.409Z,10.98
2023-05-14T03:54:44.245Z,11.13
2023-05-14T03:57:11.241Z,12.60
2023-05-14T03:59:38.176Z,13.48
2023-05-14T04:02:05.227Z,12.15
2023-05-14T04:04:32.209Z,9.95
2023-05-14T04:06:59.154Z,11.00
2023-05-14T04:09:28.755Z,13.55
2023-05-14T04:11:56.811Z,13.65
2023-05-14T04:14:23.848Z,12.45
2023-05-14T04:16:50.820Z,11.88
2023-05-14T04:19:18.062Z,10.02
2023-05-14T04:21:45.260Z,15.32
2023-05-14T04:24:12.173Z,14.48
2023-05-14T04:26:39.096Z,10.73
2023-05-14T04:29:06.090Z,10.77
2023-05-14T04:31:33.825Z,12.70
2023-05-14T04:34:01.129Z,12.43
2023-05-14T04:36:28.012Z,11.00
2023-05-14T04:38:54.920Z,11.15
2023-05-14T04:41:21.854Z,13.25
2023-05-14T04:43:50.842Z,14.27
2023-05-14T04:46:17.890Z,11.93
2023-05-14T04:48:44.767Z,14.07
2023-05-14T04:51:11.676Z,13.43
2023-05-14T04:53:38.588Z,12.45
2023-05-14T04:56:06.527Z,12.65
2023-05-14T04:58:35.115Z,14.57
2023-05-14T05:01:05.102Z,15.00
2023-05-14T05:03:32.771Z,12.45
2023-05-14T05:05:59.942Z,11.35
2023-05-14T05:08:26.897Z,11.02
2023-05-14T05:10:53.837Z,13.27
2023-05-14T05:13:20.737Z,11.20
2023-05-14T05:15:47.747Z,12.93
2023-05-14T05:18:14.677Z,12.30
2023-05-14T05:20:41.574Z,12.25
2023-05-14T05:23:08.423Z,12.38
2023-05-14T05:25:35.485Z,13.52
2023-05-14T05:28:02.463Z,14.25
2023-05-14T05:30:32.021Z,13.23
2023-05-14T05:32:59.136Z,11.30
2023-05-14T05:35:26.112Z,11.90
2023-05-14T05:37:53.108Z,17.25
2023-05-14T05:40:20.400Z,14.82
2023-05-14T05:42:47.253Z,14.20
2023-05-14T05:45:14.237Z,16.60
2023-05-14T05:47:41.146Z,15.32
2023-05-14T05:50:09.661Z,15.32
2023-05-14T05:52:36.850Z,14.70
2023-05-14T05:55:05.678Z,11.88
2023-05-14T05:57:32.746Z,16.50
2023-05-14T05:59:59.648Z,14.38
2023-05-14T06:02:26.756Z,16.10
2023-05-14T06:04:53.835Z,19.38
2023-05-14T06:07:21.331Z,14.25
2023-05-14T06:09:48.306Z,14.10
2023-05-14T06:12:15.238Z,13.80
2023-05-14T06:14:42.108Z,17.63
2023-05-14T06:17:09.318Z,16.48
2023-05-14T06:19:36.375Z,17.35
2023-05-14T06:22:03.490Z,15.70
2023-05-14T06:24:30.373Z,14.95
2023-05-14T06:26:57.253Z,21.40
2023-05-14T06:29:24.984Z,21.80
2023-05-14T06:31:52.121Z,15.73
2023-05-14T06:34:19.104Z,15.63
2023-05-14T06:36:46.263Z,16.58
2023-05-14T06:39:13.295Z,17.17
2023-05-14T06:41:40.280Z,18.30
2023-05-14T06:44:10.067Z,16.98
2023-05-14T06:46:37.609Z,17.98
2023-05-14T06:49:04.586Z,22.65
2023-05-14T06:51:32.522Z,18.67
2023-05-14T06:53:59.499Z,19.13
2023-05-14T06:56:26.441Z,22.35
2023-05-14T06:58:53.327Z,19.15
2023-05-14T07:01:20.306Z,19.48
2023-05-14T07:03:47.243Z,18.13
2023-05-14T07:06:14.260Z,18.45
2023-05-14T07:08:41.227Z,18.50
2023-05-14T07:11:08.222Z,15.38
2023-05-14T07:13:35.093Z,18.45
2023-05-14T07:16:02.062Z,17.40
2023-05-14T07:18:29.035Z,17.58
2023-05-14T07:20:56.041Z,15.45
2023-05-14T07:23:23.249Z,16.98
2023-05-14T07:25:50.308Z,17.17
2023-05-14T07:28:17.246Z,18.45
2023-05-14T07:30:44.168Z,17.60
2023-05-14T07:33:11.150Z,17.02
2023-05-14T07:35:38.148Z,15.25
2023-05-14T07:38:06.279Z,16.98
2023-05-14T07:40:33.243Z,14.68
2023-05-14T07:43:00.455Z,15.70
2023-05-14T07:45:27.429Z,14.38
2023-05-14T07:47:54.487Z,14.15
2023-05-14T07:50:22.359Z,15.27
2023-05-14T07:52:49.494Z,15.35
2023-05-14T07:55:16.958Z,16.70
2023-05-14T07:57:43.996Z,15.35
2023-05-14T08:00:12.202Z,14.40
2023-05-14T08:02:42.702Z,15.13
2023-05-14T08:05:10.432Z,17.73
2023-05-14T08:07:37.427Z,13.18
2023-05-14T08:10:04.825Z,12.45
2023-05-14T08:12:31.865Z,14.30
2023-05-14T08:14:58.817Z,13.85
2023-05-14T08:17:26.108Z,12.80
2023-05-14T08:19:53.830Z,14.00
2023-05-14T08:22:21.748Z,12.40
2023-05-14T08:24:48.875Z,13.25
2023-05-14T08:27:16.660Z,13.18
2023-05-14T08:29:43.642Z,11.88
2023-05-14T08:32:22.015Z,15.73
2023-05-14T08:34:50.653Z,11.23
2023-05-14T08:37:17.618Z,11.95
2023-05-14T08:39:44.915Z,12.25
2023-05-14T08:42:15.556Z,12.30
2023-05-14T08:44:53.010Z,12.88
2023-05-14T08:47:24.154Z,10.80
2023-05-14T08:50:07.437Z,9.40
2023-05-14T08:52:35.430Z,9.05
2023-05-14T08:55:06.792Z,6.43
2023-05-14T08:57:35.298Z,6.93
2023-05-14T09:00:15.441Z,8.82
2023-05-14T09:02:44.608Z,6.47
2023-05-14T09:05:12.336Z,6.97
2023-05-14T09:07:39.483Z,5.82
2023-05-14T09:10:08.960Z,5.25
2023-05-14T09:12:35.901Z,5.95
2023-05-14T09:15:03.402Z,4.53
2023-05-14T09:17:30.428Z,5.53
2023-05-14T09:19:58.285Z,4.32
2023-05-14T09:22:25.472Z,5.43
2023-05-14T09:25:12.031Z,3.55
2023-05-14T09:27:39.200Z,3.72
2023-05-14T09:39:18.233Z,3.67
2023-05-14T09:42:22.796Z,7.35
2023-05-14T09:45:40.693Z,5.93
2023-05-14T10:02:46.571Z,5.75
2023-05-14T10:05:15.866Z,6.57
2023-05-14T10:07:53.324Z,5.45
2023-05-14T10:10:24.360Z,9.50
2023-05-14T10:13:04.734Z,4.53
2023-05-14T10:15:42.126Z,6.78
2023-05-14T10:18:13.035Z,6.68
2023-05-14T10:20:42.015Z,4.40
2023-05-14T10:23:09.626Z,4.22
2023-05-14T10:25:37.542Z,7.10
2023-05-14T10:28:05.993Z,5.38
2023-05-14T10:30:33.080Z,2.90
2023-05-14T10:33:14.348Z,5.80
2023-05-14T10:35:59.868Z,5.25
2023-05-14T10:38:30.432Z,2.95
2023-05-14T10:41:03.662Z,4.03
2023-05-14T10:43:36.957Z,3.72
2023-05-14T10:46:04.998Z,5.07
2023-05-14T10:48:34.210Z,2.75
2023-05-14T10:51:04.862Z,2.67
2023-05-14T10:53:41.294Z,3.58
2023-05-14T10:56:11.367Z,5.07
2023-05-14T10:58:41.645Z,4.95
2023-05-14T11:01:11.063Z,5.68
2023-05-14T11:03:46.938Z,3.03
2023-05-14T11:06:15.894Z,2.83
2023-05-14T11:08:44.507Z,5.03
2023-05-14T11:11:14.818Z,4.45
2023-05-14T11:13:42.789Z,2.88
2023-05-14T11:18:41.719Z,6.55
2023-05-14T11:21:08.761Z,4.80
2023-05-14T11:23:36.755Z,4.40
2023-05-14T11:26:04.390Z,3.38
2023-05-14T11:28:31.523Z,2.83
2023-05-14T11:30:59.125Z,5.80
2023-05-14T11:33:29.234Z,6.32
2023-05-14T11:35:56.137Z,7.00
2023-05-14T11:38:23.002Z,3.65
2023-05-14T11:40:58.548Z,4.60
2023-05-14T11:43:28.977Z,2.45
2023-05-14T11:45:56.462Z,6.68
2023-05-14T11:48:24.261Z,4.07
2023-05-14T11:50:52.988Z,2.15
2023-05-14T11:53:25.935Z,5.85
2023-05-14T11:55:54.791Z,3.78
2023-05-14T11:58:22.455Z,3.17
2023-05-14T12:00:56.926Z,2.22
2023-05-14T12:03:29.480Z,3.90
2023-05-14T12:06:01.268Z,2.72
2023-05-14T12:08:30.156Z,5.28
2023-05-14T12:11:00.976Z,4.03
2023-05-14T12:13:30.637Z,3.13
2023-05-14T12:16:00.793Z,4.47
2023-05-14T12:18:31.272Z,2.58
2023-05-14T12:21:08.326Z,5.10
2023-05-14T12:23:38.272Z,5.25
2023-05-14T12:26:08.415Z,5.10
2023-05-14T12:28:42.393Z,5.55
2023-05-14T12:31:09.531Z,3.70
2023-05-14T12:33:36.476Z,6.20
2023-05-14T12:38:33.492Z,5.80
2023-05-14T12:41:00.377Z,3.60
2023-05-14T12:43:31.480Z,5.68
2023-05-14T12:45:58.402Z,6.05
2023-05-14T12:48:26.015Z,4.22
2023-05-14T12:50:52.926Z,3.85
2023-05-14T12:53:19.799Z,5.40
2023-05-14T12:55:46.870Z,4.78
2023-05-14T12:58:13.748Z,4.28
2023-05-14T13:00:40.802Z,3.78
2023-05-14T13:03:07.926Z,2.03
2023-05-14T13:05:35.176Z,6.85
2023-05-14T13:08:03.867Z,4.15
2023-05-14T13:10:31.008Z,4.07
2023-05-14T13:12:58.278Z,4.47
2023-05-14T13:15:25.345Z,3.22
2023-05-14T13:17:52.595Z,3.80
2023-05-14T13:20:19.961Z,2.58
2023-05-14T13:22:46.896Z,3.45
2023-05-14T13:25:13.798Z,3.83
2023-05-14T13:27:40.619Z,6.65
2023-05-14T13:30:08.358Z,3.25
2023-05-14T13:32:35.471Z,2.28
2023-05-14T13:35:02.412Z,2.10
2023-05-14T13:37:29.426Z,2.88
2023-05-14T13:39:56.335Z,2.90
2023-05-14T13:42:23.740Z,3.55
2023-05-14T13:44:50.775Z,4.18
2023-05-14T13:47:17.880Z,3.75
2023-05-14T13:49:45.132Z,4.00
2023-05-14T13:52:12.135Z,3.38
2023-05-14T13:54:42.876Z,3.40
2023-05-14T13:57:09.829Z,2.88
2023-05-14T13:59:36.931Z,3.10
2023-05-14T14:02:04.800Z,3.50
2023-05-14T14:04:32.094Z,4.93
2023-05-14T14:06:59.038Z,4.95
2023-05-14T14:09:26.068Z,2.40
2023-05-14T14:11:53.297Z,3.08
2023-05-14T14:14:21.086Z,4.95
2023-05-14T14:16:47.933Z,2.35
2023-05-14T14:19:16.284Z,3.53
2023-05-14T14:21:44.700Z,4.70
2023-05-14T14:24:11.611Z,3.05
2023-05-14T14:26:38.609Z,3.33
2023-05-14T14:29:05.575Z,2.65
2023-05-14T14:31:32.636Z,5.57
2023-05-14T14:33:59.656Z,4.22
2023-05-14T14:36:26.683Z,4.10
2023-05-14T14:38:53.549Z,2.58
2023-05-14T14:41:20.505Z,5.90
2023-05-14T14:43:47.395Z,2.47
2023-05-14T14:46:14.293Z,5.72
2023-05-14T14:48:41.256Z,2.08
2023-05-14T14:51:09.336Z,3.30
2023-05-14T14:53:37.160Z,2.80
2023-05-14T14:56:05.024Z,4.18
2023-05-14T14:58:32.552Z,5.07
2023-05-14T15:01:01.282Z,7.72
2023-05-14T15:03:28.966Z,3.17
2023-05-14T15:05:56.217Z,5.20
2023-05-14T15:08:29.359Z,4.28
2023-05-14T15:10:57.242Z,3.53
2023-05-14T15:13:24.793Z,3.45
2023-05-14T15:15:55.085Z,5.10
2023-05-14T15:18:22.125Z,3.90
2023-05-14T15:20:49.353Z,2.78
2023-05-14T15:23:16.356Z,2.72
2023-05-14T15:25:43.374Z,5.10
2023-05-14T15:28:10.895Z,2.38
2023-05-14T15:30:37.986Z,4.53
2023-05-14T15:33:08.027Z,3.30
2023-05-14T15:35:36.377Z,2.20
2023-05-14T15:38:03.524Z,3.75
2023-05-14T15:40:30.584Z,3.70
2023-05-14T15:42:57.586Z,2.42
2023-05-14T15:45:24.644Z,7.10
2023-05-14T15:47:51.744Z,3.50
2023-05-14T15:50:19.500Z,6.43
2023-05-14T15:52:46.520Z,8.10
2023-05-14T15:55:13.653Z,3.50
2023-05-14T15:57:40.626Z,4.00
2023-05-14T16:00:17.726Z,4.78
2023-05-14T16:02:47.710Z,6.53
2023-05-14T16:05:20.675Z,4.05
2023-05-14T16:07:47.868Z,4.60
2023-05-14T16:10:16.555Z,5.80
2023-05-14T16:12:49.022Z,4.32
2023-05-14T16:15:24.814Z,5.60
2023-05-14T16:18:04.068Z,7.28
2023-05-14T16:21:39.374Z,4.00
2023-05-14T16:33:19.284Z,4.10
2023-05-14T16:36:47.350Z,4.00
2023-05-14T16:39:30.088Z,4.72
2023-05-14T16:42:05.618Z,4.93
2023-05-14T17:00:36.246Z,4.47
2023-05-14T17:03:47.095Z,4.05
2023-05-14T17:10:22.604Z,3.88
2023-05-14T17:38:57.979Z,5.03
2023-05-14T17:41:45.945Z,4.43
2023-05-14T17:49:42.306Z,3.75
2023-05-14T18:14:45.667Z,3.05
2023-05-14T19:35:18.858Z,5.43
2023-05-14T19:38:06.448Z,4.25
2023-05-14T19:41:24.790Z,3.70
2023-05-14T19:45:50.002Z,3.72
2023-05-14T19:55:11.784Z,4.80
2023-05-14T20:02:03.431Z,12.07
2023-05-14T20:06:16.227Z,3.38
2023-05-14T20:17:15.184Z,5.22
2023-05-14T20:21:01.594Z,7.80
2023-05-14T20:26:55.059Z,5.95
2023-05-14T20:29:36.214Z,5.93
2023-05-14T20:32:40.131Z,6.82
2023-05-14T20:35:27.633Z,6.88
2023-05-14T20:38:30.092Z,8.20
2023-05-14T20:41:09.408Z,6.78
2023-05-14T20:44:45.887Z,6.22
2023-05-14T20:47:48.889Z,11.65
2023-05-14T20:50:34.464Z,7.63
2023-05-14T20:53:42.170Z,11.65
2023-05-14T20:56:41.763Z,5.88
2023-05-14T21:00:02.368Z,8.82
2023-05-14T21:07:44.355Z,5.68
2023-05-14T21:10:11.519Z,8.88
2023-05-14T21:12:38.406Z,10.23
2023-05-14T21:15:06.098Z,6.85
2023-05-14T21:17:33.073Z,8.52
2023-05-14T21:20:00.002Z,21.05
2023-05-14T21:22:27.602Z,10.88
2023-05-14T21:24:55.939Z,7.25
2023-05-14T21:27:23.060Z,9.13
2023-05-14T21:29:50.025Z,7.35
2023-05-14T21:32:17.054Z,7.03
2023-05-14T21:34:43.895Z,6.70
2023-05-14T21:37:10.868Z,6.95
2023-05-14T21:39:37.815Z,9.10
2023-05-14T21:42:05.128Z,7.15
2023-05-14T21:44:31.986Z,8.90
2023-05-14T21:46:59.521Z,6.32
2023-05-14T21:49:26.388Z,7.85
2023-05-14T21:51:54.514Z,7.05
2023-05-14T21:54:21.538Z,9.45
2023-05-14T21:56:48.563Z,8.70
2023-05-14T21:59:15.674Z,10.70
2023-05-14T22:04:12.954Z,8.45
2023-05-14T22:06:40.230Z,8.93
2023-05-14T22:09:07.161Z,11.57
2023-05-14T22:11:34.090Z,9.38
2023-05-14T22:14:00.989Z,10.73
2023-05-14T22:16:27.925Z,10.98
2023-05-14T22:18:54.988Z,9.77
2023-05-14T22:21:21.940Z,11.88
2023-05-14T22:23:50.267Z,9.68
2023-05-14T22:26:17.377Z,8.40
2023-05-14T22:28:44.358Z,12.20
2023-05-14T22:31:11.369Z,13.65
2023-05-14T22:33:38.295Z,12.85
2023-05-14T22:36:06.943Z,11.63
2023-05-14T22:38:34.317Z,13.73
2023-05-14T22:41:01.230Z,15.10
2023-05-14T22:43:28.871Z,15.18
2023-05-14T22:46:11.014Z,14.63
2023-05-14T22:48:45.564Z,20.02
2023-05-14T22:51:23.042Z,19.23
2023-05-14T22:54:18.418Z,15.35
2023-05-14T22:56:49.998Z,21.98
2023-05-14T23:00:34.511Z,14.70
2023-05-14T23:03:24.507Z,20.80
2023-05-14T23:06:02.017Z,23.30
2023-05-14T23:08:52.584Z,16.90
2023-05-14T23:15:05.831Z,18.42
2023-05-14T23:28:30.601Z,19.25
2023-05-14T23:41:03.628Z,22.10
2023-05-14T23:44:10.046Z,19.52
2023-05-14T23:46:49.064Z,21.42
